Malibu, CA

8:33 AM PST on February 06, 2016 (GMT -0800)
Pt. Dume - Dume Drive | | Change Station
CLOSE
Current Station
Personal Weather Station
Location: Malibu, CA
Elevation: 213 ft
Nearby Weather Stations
Active Advisory: Wind Advisory

Elev 213 ft 34.02 °N, 118.81 °W | Updated 4 minutes ago

Clear
Clear
66.2 °F
Feels Like 66.2 °F
N
0.0
Wind Variable Wind from NE
Gusts 4.0 mph

Today
High -- | Low -- °F
--% Chance of Precip.
Yesterday
High -- | Low -- °F
Precip. -- in
Pressure 30.28 in
Visibility 10.0 miles
Clouds Few 28000 ft
Dew Point 26 °F
Humidity 22%
Rainfall 0.00 in
Snow Depth Not available.
6:48 AM 5:30 PM
Waning Crescent, 5% visible
METAR KNTD 061456Z COR 05014KT 10SM FEW280 17/M04 A3027 RMK AO2 SLP253 T01721039 53003 $
Pressure 30.28 in
Visibility 10.0 miles
Clouds Few 28000 ft
Dew Point 26 °F
Humidity 22%
Rainfall 0.00 in
Snow Depth Not available.
6:48 AM 5:30 PM
Waning Crescent, 5% visible
METAR KNTD 061456Z COR 05014KT 10SM FEW280 17/M04 A3027 RMK AO2 SLP253 T01721039 53003 $

10-Day Weather Forecast

Almanac

Astronomy

Feb. 06, 2016 Rise Set
Actual Time
Civil Twilight
Nautical Twilight
Astronomical Twilight
Moon
Length of Visible Light
Length of Day
Tomorrow will be .
, % of the Moon is Illuminated

Today's Extremes

State Highs State Lows

Community

WunderPhotos

Upload Photos

1,891,015 photos uploaded!

WunderBlog® & News

Nearby

Air Quality

  Air Quality AQ Index Pollutant
Not available.

Snow Depth

Station Depth Elevation

Earthquake Activity

City Distance Mag. Time & Date
Minimum magnitude displayed is 2.5.

Coastal Water Temperatures

Place Temperature

Stations

Nearby Weather Stations

Station Location Temp. Windchill Dew Point Humidity Wind Precip. Elev Updated Type
                   

Watches & Warnings

Wind Advisory
Issued: 3:02 AM PST Feb. 6, 2016 – National Weather Service

... Wind Advisory remains in effect until 2 PM PST this
afternoon...

* winds... areas of north to northeast 15 to 25 mph with local
gusts to 35 mph are expected below passes and canyons from
Malibu to the Hollywood Hills.

* Impacts... gusty winds will make driving difficult... especially
for drivers of high profile vehicles.

Precautionary/preparedness actions...

When driving... use extra caution. Be prepared for sudden gusty
cross winds.



Asr